createdAt,value
2023-03-14T00:02:22.490Z,98816.31
2023-03-14T00:04:50.689Z,98837.94
2023-03-14T00:07:21.637Z,98724.22
2023-03-14T00:09:53.394Z,98689.28
2023-03-14T00:12:21.862Z,98686.63
2023-03-14T00:14:49.932Z,98774.97
2023-03-14T00:17:18.090Z,98813.09
2023-03-14T00:19:48.404Z,98765.78
2023-03-14T00:22:21.751Z,98717.44
2023-03-14T00:24:49.908Z,98696.75
2023-03-14T00:27:20.042Z,98796.44
2023-03-14T00:29:50.058Z,98708.63
2023-03-14T00:32:18.101Z,98735.44
2023-03-14T00:34:50.769Z,98714.59
2023-03-14T00:37:21.110Z,98808.75
2023-03-14T00:40:00.009Z,98671.94
2023-03-14T00:42:38.380Z,98837.66
2023-03-14T00:45:13.250Z,98732.69
2023-03-14T00:47:57.065Z,98720.81
2023-03-14T00:50:31.797Z,98633.78
2023-03-14T00:53:52.084Z,98691.19
2023-03-14T00:55:58.625Z,98658.09
2023-03-14T00:58:30.967Z,98731.84
2023-03-14T01:01:12.092Z,98641.38
2023-03-14T01:03:40.116Z,98705.03
2023-03-14T01:06:22.261Z,98824.94
2023-03-14T01:08:50.394Z,98832.56
2023-03-14T01:11:22.608Z,98824.22
2023-03-14T01:13:56.877Z,98739.66
2023-03-14T01:16:30.555Z,98686.41
2023-03-14T01:19:03.491Z,98765.66
2023-03-14T01:21:38.872Z,98701.06
2023-03-14T01:24:12.740Z,98664.22
2023-03-14T01:26:40.661Z,98764.69
2023-03-14T01:29:10.204Z,98731.38
2023-03-14T01:31:40.460Z,98669.72
2023-03-14T01:34:11.447Z,98843.34
2023-03-14T01:36:39.607Z,98750.66
2023-03-14T01:39:10.980Z,98679.16
2023-03-14T01:41:41.670Z,98854.63
2023-03-14T01:44:20.702Z,98735.38
2023-03-14T01:46:48.650Z,98670.69
2023-03-14T01:49:34.074Z,98841.22
2023-03-14T01:52:37.292Z,98822.66
2023-03-14T01:55:21.130Z,98846.38
2023-03-14T01:58:09.266Z,98730.16
2023-03-14T02:00:39.350Z,98675.44
2023-03-14T02:03:17.588Z,98846.72
2023-03-14T02:05:48.021Z,98715.78
2023-03-14T02:08:23.041Z,98759.94
2023-03-14T02:11:05.589Z,98831.44
2023-03-14T02:14:43.482Z,98820.63
2023-03-14T02:17:27.834Z,98789.38
2023-03-14T02:20:52.084Z,98788.56
2023-03-14T02:24:10.437Z,98764.84
2023-03-14T02:27:14.147Z,98764.91
2023-03-14T02:30:16.610Z,98716.78
2023-03-14T02:32:52.995Z,98687.53
2023-03-14T02:35:26.891Z,98700.53
2023-03-14T02:39:11.463Z,98772.19
2023-03-14T02:41:43.500Z,98769.78
2023-03-14T02:44:14.539Z,98732.88
2023-03-14T02:46:45.216Z,98768.91
2023-03-14T02:49:18.685Z,98749.69
2023-03-14T02:51:50.554Z,98655.91
2023-03-14T02:54:20.917Z,98694.44
2023-03-14T02:56:51.776Z,98690.09
2023-03-14T02:59:19.847Z,98745.81
2023-03-14T03:01:52.991Z,98696.22
2023-03-14T03:04:20.739Z,98652.44
2023-03-14T03:06:48.412Z,98743.19
2023-03-14T03:09:32.759Z,98741.69
2023-03-14T03:12:11.780Z,98747.47
2023-03-14T03:15:13.332Z,98717.94
2023-03-14T03:17:41.738Z,98773.00
2023-03-14T03:20:11.127Z,98643.78
2023-03-14T03:22:42.661Z,98719.69
2023-03-14T03:25:11.383Z,98744.41
2023-03-14T03:27:39.266Z,98742.50
2023-03-14T03:30:09.751Z,98690.59
2023-03-14T03:32:50.529Z,98718.38
2023-03-14T03:35:18.595Z,98531.69
2023-03-14T03:37:46.315Z,98625.31
2023-03-14T03:40:14.325Z,98705.44
2023-03-14T03:42:42.669Z,98734.50
2023-03-14T03:45:17.601Z,98621.00
2023-03-14T03:47:52.485Z,98743.97
2023-03-14T03:50:22.798Z,98754.22
2023-03-14T03:52:50.652Z,98680.81
2023-03-14T03:55:20.854Z,98664.84
2023-03-14T03:57:49.274Z,98749.28
2023-03-14T04:00:19.927Z,98727.16
2023-03-14T04:02:52.489Z,98667.56
2023-03-14T04:05:20.901Z,98752.34
2023-03-14T04:07:55.509Z,98656.84
2023-03-14T04:10:27.119Z,98680.31
2023-03-14T04:13:11.655Z,98675.59
2023-03-14T04:15:41.272Z,98696.84
2023-03-14T04:18:21.912Z,98712.34
2023-03-14T04:20:57.029Z,98664.00
2023-03-14T04:23:29.678Z,98579.38
2023-03-14T04:25:57.522Z,98682.06
2023-03-14T04:28:26.517Z,98660.41
2023-03-14T04:30:54.322Z,98707.34
2023-03-14T04:33:24.926Z,98619.75
2023-03-14T04:35:57.388Z,98671.66
2023-03-14T04:38:25.922Z,98571.72
2023-03-14T04:40:54.412Z,98612.00
2023-03-14T04:43:26.762Z,98601.41
2023-03-14T04:46:01.224Z,98605.00
2023-03-14T04:48:29.107Z,98677.91
2023-03-14T04:50:57.214Z,98625.53
2023-03-14T04:53:25.572Z,98668.53
2023-03-14T04:55:58.381Z,98699.63
2023-03-14T04:58:31.862Z,98677.94
2023-03-14T05:01:06.392Z,98628.41
2023-03-14T05:03:52.457Z,98670.53
2023-03-14T05:06:31.369Z,98658.38
2023-03-14T05:09:08.142Z,98620.88
2023-03-14T05:11:54.251Z,98645.78
2023-03-14T05:14:35.633Z,98677.31
2023-03-14T05:17:40.276Z,98682.44
2023-03-14T05:20:18.432Z,98579.16
2023-03-14T05:23:03.507Z,98564.22
2023-03-14T05:26:03.627Z,98603.53
2023-03-14T05:28:36.914Z,98573.16
2023-03-14T05:31:21.555Z,98650.84
2023-03-14T05:34:19.830Z,98645.66
2023-03-14T05:37:10.649Z,98562.63
2023-03-14T05:39:56.971Z,98565.47
2023-03-14T05:42:40.321Z,98597.75
2023-03-14T05:45:31.068Z,98612.00
2023-03-14T05:48:10.773Z,98552.94
2023-03-14T05:50:46.111Z,98648.66
2023-03-14T05:53:31.396Z,98676.16
2023-03-14T05:56:37.832Z,98566.09
2023-03-14T05:59:40.420Z,98617.78
2023-03-14T06:02:18.575Z,98548.25
2023-03-14T06:04:59.119Z,98566.94
2023-03-14T06:07:29.492Z,98602.75
2023-03-14T06:10:00.425Z,98566.09
2023-03-14T06:12:29.392Z,98687.28
2023-03-14T06:14:58.099Z,98471.53
2023-03-14T06:17:30.000Z,98645.16
2023-03-14T06:20:05.202Z,98566.44
2023-03-14T06:22:36.846Z,98649.56
2023-03-14T06:25:08.156Z,98469.19
2023-03-14T06:27:46.364Z,98667.13
2023-03-14T06:30:15.714Z,98579.75
2023-03-14T06:32:43.899Z,98618.25
2023-03-14T06:35:19.011Z,98563.25
2023-03-14T06:37:47.809Z,98693.88
2023-03-14T06:40:22.305Z,98595.44
2023-03-14T06:43:00.860Z,98463.78
2023-03-14T06:45:31.487Z,98614.19
2023-03-14T06:48:10.389Z,98584.31
2023-03-14T06:50:51.287Z,98494.63
2023-03-14T06:53:19.305Z,98590.78
2023-03-14T06:55:48.235Z,98555.81
2023-03-14T06:58:20.474Z,98699.34
2023-03-14T07:00:48.366Z,98629.56
2023-03-14T07:03:21.832Z,98696.22
2023-03-14T07:05:51.969Z,98522.81
2023-03-14T07:08:21.063Z,98553.03
2023-03-14T07:10:49.132Z,98561.53
2023-03-14T07:13:22.112Z,98527.50
2023-03-14T07:16:02.308Z,98528.84
2023-03-14T07:18:30.559Z,98657.94
2023-03-14T07:21:01.127Z,98653.94
2023-03-14T07:23:31.979Z,98511.63
2023-03-14T07:26:00.447Z,98647.66
2023-03-14T07:28:32.225Z,98543.09
2023-03-14T07:31:18.381Z,98561.94
2023-03-14T07:33:52.041Z,98540.53
2023-03-14T07:36:40.178Z,98526.50
2023-03-14T07:39:22.111Z,98560.63
2023-03-14T07:42:32.608Z,98725.97
2023-03-14T07:45:13.432Z,98513.28
2023-03-14T07:47:46.581Z,98599.94
2023-03-14T07:50:14.753Z,98548.00
2023-03-14T07:52:50.102Z,98471.66
2023-03-14T07:55:18.592Z,98670.88
2023-03-14T07:57:52.881Z,98674.84
2023-03-14T08:00:22.571Z,98632.03
2023-03-14T08:02:50.863Z,98565.31
2023-03-14T08:05:21.583Z,98658.81
2023-03-14T08:07:49.721Z,98654.16
2023-03-14T08:10:23.529Z,98660.59
2023-03-14T08:13:00.168Z,98637.16
2023-03-14T08:15:33.608Z,98636.16
2023-03-14T08:18:01.578Z,98534.31
2023-03-14T08:20:31.451Z,98522.19
2023-03-14T08:23:03.146Z,98567.34
2023-03-14T08:25:31.347Z,98730.44
2023-03-14T08:28:02.689Z,98509.97
2023-03-14T08:30:36.334Z,98600.41
2023-03-14T08:33:07.604Z,98686.50
2023-03-14T08:35:39.077Z,98536.34
2023-03-14T08:38:07.045Z,98536.38
2023-03-14T08:40:35.091Z,98710.09
2023-03-14T08:43:06.872Z,98530.28
2023-03-14T08:45:34.868Z,98627.72
2023-03-14T08:48:09.572Z,98601.84
2023-03-14T08:50:40.238Z,98575.16
2023-03-14T08:53:10.624Z,98621.09
2023-03-14T08:55:41.569Z,98572.38
2023-03-14T08:58:09.731Z,98677.31
2023-03-14T09:00:38.970Z,98559.06
2023-03-14T09:03:07.010Z,98522.16
2023-03-14T09:05:37.546Z,98570.94
2023-03-14T09:08:05.697Z,98588.00
2023-03-14T09:10:33.967Z,98652.91
2023-03-14T09:13:01.846Z,98679.88
2023-03-14T09:15:29.709Z,98534.31
2023-03-14T09:18:00.973Z,98654.53
2023-03-14T09:20:31.803Z,98683.56
2023-03-14T09:22:59.871Z,98664.97
2023-03-14T09:25:31.056Z,98686.81
2023-03-14T09:27:59.092Z,98516.75
2023-03-14T09:30:28.087Z,98577.00
2023-03-14T09:32:58.800Z,98556.09
2023-03-14T09:35:27.035Z,98546.25
2023-03-14T09:37:57.180Z,98587.88
2023-03-14T09:40:25.607Z,98661.63
2023-03-14T09:42:56.057Z,98665.28
2023-03-14T09:45:41.466Z,98628.13
2023-03-14T09:48:29.953Z,98685.78
2023-03-14T09:51:13.857Z,98682.94
2023-03-14T09:53:45.776Z,98576.03
2023-03-14T09:56:33.253Z,98574.31
2023-03-14T09:59:05.266Z,98600.41
2023-03-14T10:01:38.135Z,98512.63
2023-03-14T10:04:20.206Z,98563.53
2023-03-14T10:06:49.447Z,98494.59
2023-03-14T10:09:31.963Z,98530.34
2023-03-14T10:12:08.983Z,98535.28
2023-03-14T10:14:46.065Z,98519.81
2023-03-14T10:17:15.620Z,98606.59
2023-03-14T10:20:00.322Z,98671.59
2023-03-14T10:22:33.249Z,98544.25
2023-03-14T10:25:26.881Z,98571.69
2023-03-14T10:27:55.038Z,98491.25
2023-03-14T10:30:51.284Z,98683.31
2023-03-14T10:33:33.830Z,98620.63
2023-03-14T10:36:31.106Z,98618.16
2023-03-14T10:39:28.620Z,98587.09
2023-03-14T10:42:06.928Z,98703.94
2023-03-14T10:44:39.976Z,98558.16
2023-03-14T10:47:25.141Z,98550.41
2023-03-14T10:49:58.744Z,98544.16
2023-03-14T10:52:57.554Z,98515.09
2023-03-14T10:55:21.920Z,98639.22
2023-03-14T10:57:52.484Z,98507.53
2023-03-14T11:00:27.527Z,98639.06
2023-03-14T11:03:30.173Z,98520.47
2023-03-14T11:06:49.531Z,98700.94
2023-03-14T11:09:43.575Z,98643.59
2023-03-14T11:12:48.279Z,98699.13
2023-03-14T11:15:44.464Z,98583.06
2023-03-14T11:18:25.554Z,98626.03
2023-03-14T11:21:13.966Z,98660.06
2023-03-14T11:24:10.133Z,98627.38
2023-03-14T11:27:09.869Z,98702.09
2023-03-14T11:29:59.127Z,98637.50
2023-03-14T11:33:05.368Z,98644.47
2023-03-14T11:36:02.180Z,98699.53
2023-03-14T11:38:53.868Z,98702.94
2023-03-14T11:41:42.793Z,98658.09
2023-03-14T11:44:23.759Z,98692.28
2023-03-14T11:47:17.004Z,98604.59
2023-03-14T11:50:16.987Z,98689.31
2023-03-14T11:53:15.319Z,98671.47
2023-03-14T11:56:02.787Z,98687.53
2023-03-14T11:59:01.594Z,98587.66
2023-03-14T12:02:19.721Z,98644.25
2023-03-14T12:05:30.257Z,98675.47
2023-03-14T12:08:09.669Z,98663.28
2023-03-14T12:10:55.002Z,98479.53
2023-03-14T12:13:23.148Z,98493.56
2023-03-14T12:16:05.250Z,98479.59
2023-03-14T12:18:42.870Z,98589.41
2023-03-14T12:21:14.107Z,98575.06
2023-03-14T12:23:50.586Z,98664.66
2023-03-14T12:26:23.802Z,98593.63
2023-03-14T12:28:59.340Z,98669.16
2023-03-14T12:31:32.941Z,98626.44
2023-03-14T12:34:12.105Z,98517.50
2023-03-14T12:37:33.132Z,98639.56
2023-03-14T12:40:26.122Z,98644.25
2023-03-14T12:43:03.829Z,98493.84
2023-03-14T12:47:21.132Z,98567.94
2023-03-14T12:50:19.360Z,98585.75
2023-03-14T12:53:15.524Z,98628.34
2023-03-14T12:56:11.113Z,98623.38
2023-03-14T13:04:13.697Z,98477.97
2023-03-14T13:07:59.320Z,98547.16
2023-03-14T13:11:04.310Z,98482.88
2023-03-14T13:14:14.084Z,98634.94
2023-03-14T13:17:34.475Z,98482.22
2023-03-14T13:25:11.944Z,98452.16
2023-03-14T13:29:25.990Z,98483.56
2023-03-14T13:32:22.212Z,98467.94
2023-03-14T13:35:02.766Z,98448.63
2023-03-14T13:38:07.900Z,98461.75
2023-03-14T13:41:09.756Z,98644.03
2023-03-14T13:43:49.241Z,98617.75
2023-03-14T13:46:27.669Z,98607.88
2023-03-14T13:58:06.830Z,98605.94
2023-03-14T14:00:56.071Z,98410.97
2023-03-14T14:03:33.486Z,98572.41
2023-03-14T14:06:52.706Z,98486.44
2023-03-14T14:09:45.881Z,98495.47
2023-03-14T14:13:02.948Z,98419.19
2023-03-14T14:20:04.217Z,98487.41
2023-03-14T14:22:49.284Z,98518.06
2023-03-14T14:27:10.979Z,98747.34
2023-03-14T14:30:33.984Z,98831.53
2023-03-14T14:33:23.538Z,98801.09
2023-03-14T14:36:01.269Z,60778.69
2023-03-14T14:38:32.555Z,60778.69
2023-03-14T14:41:03.880Z,60778.69
2023-03-14T14:43:40.189Z,60778.69
2023-03-14T14:49:49.668Z,60778.69
2023-03-14T14:56:06.116Z,60778.69
2023-03-14T15:01:43.232Z,60778.69
2023-03-14T15:07:13.393Z,60778.69
2023-03-14T15:09:43.856Z,60778.69
2023-03-14T15:12:11.418Z,60778.69
2023-03-14T15:14:38.939Z,60778.69
2023-03-14T15:17:07.262Z,60778.69
2023-03-14T15:19:38.253Z,60778.69
2023-03-14T15:22:14.636Z,60778.69
2023-03-14T15:24:44.189Z,60778.69
2023-03-14T15:27:19.191Z,60778.69
2023-03-14T15:29:46.945Z,60778.69
2023-03-14T15:32:17.461Z,60778.69
2023-03-14T15:34:44.940Z,60778.69
2023-03-14T15:37:16.950Z,60778.69
2023-03-14T15:39:44.972Z,60778.69
2023-03-14T15:42:12.678Z,60778.69
2023-03-14T15:44:40.512Z,60778.69
2023-03-14T15:47:11.035Z,60778.69
2023-03-14T15:49:38.704Z,60778.69
2023-03-14T15:52:06.450Z,60778.69
2023-03-14T15:54:35.050Z,60778.69
2023-03-14T15:57:11.184Z,60778.69
2023-03-14T15:59:39.085Z,60778.69
2023-03-14T16:02:08.082Z,60778.69
2023-03-14T16:04:41.839Z,60778.69
2023-03-14T16:07:09.513Z,60778.69
2023-03-14T16:09:40.454Z,60778.69
2023-03-14T16:12:09.832Z,60778.69
2023-03-14T16:14:37.355Z,60778.69
2023-03-14T16:17:11.841Z,60778.69
2023-03-14T16:19:39.592Z,60778.69
2023-03-14T16:22:07.268Z,60778.69
2023-03-14T16:24:34.717Z,60778.69
2023-03-14T16:27:02.289Z,60778.69
2023-03-14T16:29:31.180Z,60778.69
2023-03-14T16:31:58.892Z,60778.69
2023-03-14T16:34:26.714Z,60778.69
2023-03-14T16:36:57.658Z,60778.69
2023-03-14T16:39:44.044Z,60778.69
2023-03-14T16:42:18.861Z,60778.69
2023-03-14T16:44:46.374Z,60778.69
2023-03-14T16:47:14.049Z,60778.69
2023-03-14T16:49:41.739Z,60778.69
2023-03-14T16:52:09.733Z,60778.69
2023-03-14T16:54:37.757Z,60778.69
2023-03-14T16:57:05.290Z,60778.69
2023-03-14T17:04:01.915Z,60778.69
2023-03-14T17:06:32.148Z,60778.69
2023-03-14T17:09:32.129Z,60778.69
2023-03-14T17:12:07.487Z,60778.69
2023-03-14T17:15:03.224Z,60778.69
2023-03-14T17:17:39.940Z,60778.69
2023-03-14T17:20:50.236Z,60778.69
2023-03-14T17:23:22.859Z,60778.69
2023-03-14T17:26:45.992Z,60778.69
2023-03-14T17:29:43.592Z,60778.69
2023-03-14T17:32:24.360Z,60778.69
2023-03-14T17:35:09.237Z,60778.69
2023-03-14T17:38:49.009Z,60778.69
2023-03-14T17:42:08.320Z,60778.69
2023-03-14T17:45:40.720Z,60778.69
2023-03-14T19:32:56.961Z,60778.69
2023-03-14T19:35:49.605Z,60778.69
2023-03-14T19:39:37.332Z,60778.69
2023-03-14T19:46:28.230Z,60778.69
2023-03-14T19:49:48.550Z,60778.69
2023-03-14T19:53:15.913Z,60778.69
2023-03-14T19:56:27.491Z,60778.69
2023-03-14T19:59:38.631Z,60778.69
2023-03-14T20:02:15.823Z,60778.69
2023-03-14T20:04:46.339Z,60778.69
2023-03-14T20:07:20.344Z,60778.69
2023-03-14T20:09:55.435Z,60778.69
2023-03-14T20:12:25.289Z,60778.69
2023-03-14T20:14:53.302Z,60778.69
2023-03-14T20:17:21.456Z,60778.69
2023-03-14T20:46:26.118Z,60778.69
2023-03-14T20:48:56.582Z,60778.69
2023-03-14T20:51:25.969Z,60778.69
2023-03-14T20:53:53.759Z,60778.69
2023-03-14T20:56:33.328Z,60778.69
2023-03-14T20:59:04.000Z,60778.69
2023-03-14T21:01:31.534Z,60778.69
2023-03-14T21:03:58.979Z,60778.69
2023-03-14T21:06:26.599Z,60778.69
2023-03-14T21:08:54.011Z,60778.69
2023-03-14T21:11:23.568Z,60778.69
2023-03-14T21:13:51.290Z,60778.69
2023-03-14T21:16:18.756Z,60778.69
2023-03-14T21:18:46.548Z,60778.69
2023-03-14T21:21:14.398Z,60778.69
2023-03-14T21:23:41.858Z,60778.69
2023-03-14T21:26:09.249Z,60778.69
2023-03-14T21:28:36.784Z,60778.69
2023-03-14T21:31:06.769Z,60778.69
2023-03-14T21:33:34.496Z,60778.69
2023-03-14T21:36:02.000Z,60778.69
2023-03-14T21:38:31.558Z,60778.69
2023-03-14T21:41:07.643Z,60778.69
2023-03-14T21:43:36.779Z,60778.69
2023-03-14T21:46:04.488Z,60778.69
2023-03-14T21:48:34.692Z,60778.69
2023-03-14T21:51:05.893Z,60778.69
2023-03-14T21:53:34.809Z,60778.69
2023-03-14T21:56:02.342Z,60778.69
2023-03-14T21:58:29.825Z,60778.69
2023-03-14T22:01:06.910Z,60778.69
2023-03-14T22:03:35.055Z,60778.69
2023-03-14T22:06:03.311Z,60778.69
2023-03-14T22:08:34.380Z,60778.69
2023-03-14T22:11:06.885Z,60778.69
2023-03-14T22:13:35.059Z,60778.69
2023-03-14T22:16:03.000Z,60778.69
2023-03-14T22:18:31.698Z,60778.69
2023-03-14T22:21:01.906Z,60778.69
2023-03-14T22:23:37.286Z,60778.69
2023-03-14T22:26:05.455Z,60778.69
2023-03-14T22:28:44.788Z,60778.69
